sensor_id;sensor_type;location;lat;lon;timestamp;P1;durP1;ratioP1;P2;durP2;ratioP2
75628;SDS011;64213;46.452;16.994;2023-02-01T00:00:13;17.77;;;7.35;;
75628;SDS011;64213;46.452;16.994;2023-02-01T00:03:16;23.05;;;9.07;;
75628;SDS011;64213;46.452;16.994;2023-02-01T00:06:20;20.77;;;7.93;;
75628;SDS011;64213;46.452;16.994;2023-02-01T00:09:23;19.62;;;8.05;;
75628;SDS011;64213;46.452;16.994;2023-02-01T00:12:25;22.23;;;8.83;;
75628;SDS011;64213;46.452;16.994;2023-02-01T00:15:27;21.95;;;8.13;;
75628;SDS011;64213;46.452;16.994;2023-02-01T00:18:29;18.95;;;8.48;;
75628;SDS011;64213;46.452;16.994;2023-02-01T00:21:32;21.42;;;8.05;;
75628;SDS011;64213;46.452;16.994;2023-02-01T00:24:34;24.20;;;8.60;;
75628;SDS011;64213;46.452;16.994;2023-02-01T00:27:36;20.40;;;7.90;;
75628;SDS011;64213;46.452;16.994;2023-02-01T00:30:39;19.15;;;8.15;;
75628;SDS011;64213;46.452;16.994;2023-02-01T00:33:41;22.92;;;8.63;;
75628;SDS011;64213;46.452;16.994;2023-02-01T00:36:43;22.67;;;8.43;;
75628;SDS011;64213;46.452;16.994;2023-02-01T00:39:46;19.98;;;7.22;;
75628;SDS011;64213;46.452;16.994;2023-02-01T00:42:49;20.60;;;7.30;;
75628;SDS011;64213;46.452;16.994;2023-02-01T00:45:53;24.85;;;8.95;;
75628;SDS011;64213;46.452;16.994;2023-02-01T00:48:55;19.60;;;7.97;;
75628;SDS011;64213;46.452;16.994;2023-02-01T00:51:58;21.02;;;8.82;;
75628;SDS011;64213;46.452;16.994;2023-02-01T00:55:00;18.58;;;7.93;;
75628;SDS011;64213;46.452;16.994;2023-02-01T00:58:02;23.93;;;8.10;;
75628;SDS011;64213;46.452;16.994;2023-02-01T01:01:09;22.13;;;9.02;;
75628;SDS011;64213;46.452;16.994;2023-02-01T01:04:24;20.80;;;8.35;;
75628;SDS011;64213;46.452;16.994;2023-02-01T01:07:27;17.52;;;7.00;;
75628;SDS011;64213;46.452;16.994;2023-02-01T01:10:29;26.83;;;9.80;;
75628;SDS011;64213;46.452;16.994;2023-02-01T01:13:32;19.60;;;8.53;;
75628;SDS011;64213;46.452;16.994;2023-02-01T01:16:34;23.73;;;8.75;;
75628;SDS011;64213;46.452;16.994;2023-02-01T01:19:37;26.50;;;9.25;;
75628;SDS011;64213;46.452;16.994;2023-02-01T01:22:39;20.25;;;8.48;;
75628;SDS011;64213;46.452;16.994;2023-02-01T01:25:42;21.85;;;8.73;;
75628;SDS011;64213;46.452;16.994;2023-02-01T01:28:44;21.67;;;8.13;;
75628;SDS011;64213;46.452;16.994;2023-02-01T01:31:47;24.58;;;8.18;;
75628;SDS011;64213;46.452;16.994;2023-02-01T01:34:49;24.55;;;9.05;;
75628;SDS011;64213;46.452;16.994;2023-02-01T01:37:52;24.33;;;8.48;;
75628;SDS011;64213;46.452;16.994;2023-02-01T01:40:54;24.00;;;8.93;;
75628;SDS011;64213;46.452;16.994;2023-02-01T01:43:57;28.53;;;11.40;;
75628;SDS011;64213;46.452;16.994;2023-02-01T01:47:01;23.30;;;9.52;;
75628;SDS011;64213;46.452;16.994;2023-02-01T01:50:04;24.60;;;9.20;;
75628;SDS011;64213;46.452;16.994;2023-02-01T01:53:09;24.10;;;9.80;;
75628;SDS011;64213;46.452;16.994;2023-02-01T01:56:15;22.10;;;9.10;;
75628;SDS011;64213;46.452;16.994;2023-02-01T01:59:17;21.40;;;8.23;;
75628;SDS011;64213;46.452;16.994;2023-02-01T02:02:21;21.83;;;9.57;;
75628;SDS011;64213;46.452;16.994;2023-02-01T02:05:23;23.55;;;9.60;;
75628;SDS011;64213;46.452;16.994;2023-02-01T02:08:27;28.10;;;9.18;;
75628;SDS011;64213;46.452;16.994;2023-02-01T02:11:30;19.50;;;8.43;;
75628;SDS011;64213;46.452;16.994;2023-02-01T02:14:32;19.93;;;8.50;;
75628;SDS011;64213;46.452;16.994;2023-02-01T02:21:15;22.77;;;9.02;;
75628;SDS011;64213;46.452;16.994;2023-02-01T02:27:39;23.15;;;9.05;;
75628;SDS011;64213;46.452;16.994;2023-02-01T02:37:49;22.42;;;9.00;;
75628;SDS011;64213;46.452;16.994;2023-02-01T02:45:18;22.58;;;8.35;;
75628;SDS011;64213;46.452;16.994;2023-02-01T02:48:52;14.63;;;5.27;;
75628;SDS011;64213;46.452;16.994;2023-02-01T02:52:04;21.33;;;8.05;;
75628;SDS011;64213;46.452;16.994;2023-02-01T02:55:33;23.27;;;7.95;;
75628;SDS011;64213;46.452;16.994;2023-02-01T02:58:38;23.50;;;7.55;;
75628;SDS011;64213;46.452;16.994;2023-02-01T03:01:59;21.67;;;8.05;;
75628;SDS011;64213;46.452;16.994;2023-02-01T03:05:20;19.57;;;7.03;;
75628;SDS011;64213;46.452;16.994;2023-02-01T03:08:26;20.92;;;8.02;;
75628;SDS011;64213;46.452;16.994;2023-02-01T03:11:30;18.70;;;7.28;;
75628;SDS011;64213;46.452;16.994;2023-02-01T03:14:56;19.25;;;8.15;;
75628;SDS011;64213;46.452;16.994;2023-02-01T03:18:03;22.67;;;8.98;;
75628;SDS011;64213;46.452;16.994;2023-02-01T03:21:16;22.93;;;7.60;;
75628;SDS011;64213;46.452;16.994;2023-02-01T03:24:39;20.73;;;8.15;;
75628;SDS011;64213;46.452;16.994;2023-02-01T03:30:52;18.98;;;7.07;;
75628;SDS011;64213;46.452;16.994;2023-02-01T03:33:55;17.73;;;7.68;;
75628;SDS011;64213;46.452;16.994;2023-02-01T03:37:05;18.77;;;6.73;;
75628;SDS011;64213;46.452;16.994;2023-02-01T03:40:10;19.95;;;7.62;;
75628;SDS011;64213;46.452;16.994;2023-02-01T03:43:16;19.77;;;8.25;;
75628;SDS011;64213;46.452;16.994;2023-02-01T03:46:22;19.27;;;8.18;;
75628;SDS011;64213;46.452;16.994;2023-02-01T03:49:36;21.48;;;8.82;;
75628;SDS011;64213;46.452;16.994;2023-02-01T03:52:47;19.17;;;7.73;;
75628;SDS011;64213;46.452;16.994;2023-02-01T03:55:53;20.15;;;7.53;;
75628;SDS011;64213;46.452;16.994;2023-02-01T03:58:56;15.68;;;6.68;;
75628;SDS011;64213;46.452;16.994;2023-02-01T04:02:01;17.60;;;7.72;;
75628;SDS011;64213;46.452;16.994;2023-02-01T04:05:03;20.98;;;7.22;;
75628;SDS011;64213;46.452;16.994;2023-02-01T04:08:06;20.43;;;7.67;;
75628;SDS011;64213;46.452;16.994;2023-02-01T04:11:09;19.05;;;7.60;;
75628;SDS011;64213;46.452;16.994;2023-02-01T04:14:11;18.52;;;7.22;;
75628;SDS011;64213;46.452;16.994;2023-02-01T04:17:13;21.05;;;8.02;;
75628;SDS011;64213;46.452;16.994;2023-02-01T04:20:15;20.62;;;6.97;;
75628;SDS011;64213;46.452;16.994;2023-02-01T04:23:18;18.93;;;6.70;;
75628;SDS011;64213;46.452;16.994;2023-02-01T04:26:20;24.20;;;9.10;;
75628;SDS011;64213;46.452;16.994;2023-02-01T04:29:23;20.52;;;8.23;;
75628;SDS011;64213;46.452;16.994;2023-02-01T04:32:25;20.25;;;8.10;;
75628;SDS011;64213;46.452;16.994;2023-02-01T04:35:27;23.25;;;8.25;;
75628;SDS011;64213;46.452;16.994;2023-02-01T04:38:29;18.60;;;7.53;;
75628;SDS011;64213;46.452;16.994;2023-02-01T04:41:33;22.40;;;8.90;;
75628;SDS011;64213;46.452;16.994;2023-02-01T04:44:36;20.20;;;7.85;;
75628;SDS011;64213;46.452;16.994;2023-02-01T04:47:43;15.95;;;5.47;;
75628;SDS011;64213;46.452;16.994;2023-02-01T04:50:46;22.17;;;7.72;;
75628;SDS011;64213;46.452;16.994;2023-02-01T04:53:49;18.97;;;6.50;;
75628;SDS011;64213;46.452;16.994;2023-02-01T04:56:51;19.15;;;6.65;;
75628;SDS011;64213;46.452;16.994;2023-02-01T04:59:54;17.52;;;7.22;;
75628;SDS011;64213;46.452;16.994;2023-02-01T05:02:58;21.85;;;8.07;;
75628;SDS011;64213;46.452;16.994;2023-02-01T05:06:01;17.83;;;6.80;;
75628;SDS011;64213;46.452;16.994;2023-02-01T05:09:05;19.57;;;6.93;;
75628;SDS011;64213;46.452;16.994;2023-02-01T05:12:08;19.60;;;7.15;;
75628;SDS011;64213;46.452;16.994;2023-02-01T05:15:30;17.87;;;8.20;;
75628;SDS011;64213;46.452;16.994;2023-02-01T05:18:33;18.42;;;7.72;;
75628;SDS011;64213;46.452;16.994;2023-02-01T05:21:35;21.37;;;6.47;;
75628;SDS011;64213;46.452;16.994;2023-02-01T05:24:37;26.53;;;9.07;;
75628;SDS011;64213;46.452;16.994;2023-02-01T05:27:39;36.45;;;11.85;;
75628;SDS011;64213;46.452;16.994;2023-02-01T05:30:41;31.67;;;11.32;;
75628;SDS011;64213;46.452;16.994;2023-02-01T05:33:43;33.47;;;10.48;;
75628;SDS011;64213;46.452;16.994;2023-02-01T05:36:45;25.52;;;10.27;;
75628;SDS011;64213;46.452;16.994;2023-02-01T05:39:48;21.90;;;9.07;;
75628;SDS011;64213;46.452;16.994;2023-02-01T05:42:50;24.40;;;9.68;;
75628;SDS011;64213;46.452;16.994;2023-02-01T05:45:52;20.67;;;6.87;;
75628;SDS011;64213;46.452;16.994;2023-02-01T05:48:54;17.20;;;6.30;;
75628;SDS011;64213;46.452;16.994;2023-02-01T05:51:56;21.70;;;7.60;;
75628;SDS011;64213;46.452;16.994;2023-02-01T05:55:01;22.73;;;8.30;;
75628;SDS011;64213;46.452;16.994;2023-02-01T05:58:04;20.37;;;7.43;;
75628;SDS011;64213;46.452;16.994;2023-02-01T06:01:07;24.27;;;9.15;;
75628;SDS011;64213;46.452;16.994;2023-02-01T06:04:09;26.58;;;10.10;;
75628;SDS011;64213;46.452;16.994;2023-02-01T06:07:11;21.55;;;8.52;;
75628;SDS011;64213;46.452;16.994;2023-02-01T06:10:13;21.40;;;8.13;;
75628;SDS011;64213;46.452;16.994;2023-02-01T06:13:16;17.98;;;7.28;;
75628;SDS011;64213;46.452;16.994;2023-02-01T06:16:18;26.05;;;8.82;;
75628;SDS011;64213;46.452;16.994;2023-02-01T06:19:21;25.25;;;10.27;;
75628;SDS011;64213;46.452;16.994;2023-02-01T06:22:24;56.88;;;18.65;;
75628;SDS011;64213;46.452;16.994;2023-02-01T06:25:26;130.80;;;36.77;;
75628;SDS011;64213;46.452;16.994;2023-02-01T06:28:28;75.55;;;25.40;;
75628;SDS011;64213;46.452;16.994;2023-02-01T06:31:34;44.50;;;17.15;;
75628;SDS011;64213;46.452;16.994;2023-02-01T06:34:36;27.15;;;9.05;;
75628;SDS011;64213;46.452;16.994;2023-02-01T06:37:41;23.87;;;9.52;;
75628;SDS011;64213;46.452;16.994;2023-02-01T06:40:43;23.97;;;8.87;;
75628;SDS011;64213;46.452;16.994;2023-02-01T06:43:47;21.55;;;7.82;;
75628;SDS011;64213;46.452;16.994;2023-02-01T06:46:49;22.13;;;8.93;;
75628;SDS011;64213;46.452;16.994;2023-02-01T06:49:51;21.52;;;8.70;;
75628;SDS011;64213;46.452;16.994;2023-02-01T06:52:53;32.63;;;11.10;;
75628;SDS011;64213;46.452;16.994;2023-02-01T06:56:00;35.93;;;13.33;;
75628;SDS011;64213;46.452;16.994;2023-02-01T06:59:04;23.20;;;8.02;;
75628;SDS011;64213;46.452;16.994;2023-02-01T07:02:09;22.52;;;8.93;;
75628;SDS011;64213;46.452;16.994;2023-02-01T07:05:13;28.90;;;11.40;;
75628;SDS011;64213;46.452;16.994;2023-02-01T07:08:15;23.73;;;9.32;;
75628;SDS011;64213;46.452;16.994;2023-02-01T07:11:18;23.23;;;8.93;;
75628;SDS011;64213;46.452;16.994;2023-02-01T07:14:20;26.50;;;11.80;;
75628;SDS011;64213;46.452;16.994;2023-02-01T07:17:23;34.42;;;12.52;;
75628;SDS011;64213;46.452;16.994;2023-02-01T07:20:25;28.70;;;11.57;;
75628;SDS011;64213;46.452;16.994;2023-02-01T07:23:27;24.58;;;9.25;;
75628;SDS011;64213;46.452;16.994;2023-02-01T07:26:30;23.53;;;9.13;;
75628;SDS011;64213;46.452;16.994;2023-02-01T07:29:32;25.70;;;10.10;;
75628;SDS011;64213;46.452;16.994;2023-02-01T07:32:36;28.85;;;11.32;;
75628;SDS011;64213;46.452;16.994;2023-02-01T07:35:38;25.30;;;10.40;;
75628;SDS011;64213;46.452;16.994;2023-02-01T07:38:41;26.75;;;11.48;;
75628;SDS011;64213;46.452;16.994;2023-02-01T07:41:43;29.03;;;11.80;;
75628;SDS011;64213;46.452;16.994;2023-02-01T07:44:46;32.17;;;14.60;;
75628;SDS011;64213;46.452;16.994;2023-02-01T07:47:48;29.55;;;13.98;;
75628;SDS011;64213;46.452;16.994;2023-02-01T07:51:01;18.80;;;7.45;;
75628;SDS011;64213;46.452;16.994;2023-02-01T07:54:05;24.23;;;9.27;;
75628;SDS011;64213;46.452;16.994;2023-02-01T07:57:07;26.60;;;10.23;;
75628;SDS011;64213;46.452;16.994;2023-02-01T08:00:11;26.83;;;10.93;;
75628;SDS011;64213;46.452;16.994;2023-02-01T08:03:32;27.62;;;13.45;;
75628;SDS011;64213;46.452;16.994;2023-02-01T08:06:34;34.28;;;11.93;;
75628;SDS011;64213;46.452;16.994;2023-02-01T08:09:37;31.58;;;12.98;;
75628;SDS011;64213;46.452;16.994;2023-02-01T08:12:39;24.93;;;9.70;;
75628;SDS011;64213;46.452;16.994;2023-02-01T08:15:42;36.92;;;13.65;;
75628;SDS011;64213;46.452;16.994;2023-02-01T08:18:45;24.10;;;9.80;;
75628;SDS011;64213;46.452;16.994;2023-02-01T08:21:47;29.27;;;11.23;;
75628;SDS011;64213;46.452;16.994;2023-02-01T08:24:50;31.83;;;11.05;;
75628;SDS011;64213;46.452;16.994;2023-02-01T08:27:53;27.63;;;11.90;;
75628;SDS011;64213;46.452;16.994;2023-02-01T08:30:56;24.37;;;8.30;;
75628;SDS011;64213;46.452;16.994;2023-02-01T08:33:59;24.23;;;9.25;;
75628;SDS011;64213;46.452;16.994;2023-02-01T08:37:03;26.58;;;10.13;;
75628;SDS011;64213;46.452;16.994;2023-02-01T08:40:05;25.35;;;9.52;;
75628;SDS011;64213;46.452;16.994;2023-02-01T08:43:08;26.20;;;10.30;;
75628;SDS011;64213;46.452;16.994;2023-02-01T08:46:16;20.55;;;7.60;;
75628;SDS011;64213;46.452;16.994;2023-02-01T08:49:19;21.92;;;8.02;;
75628;SDS011;64213;46.452;16.994;2023-02-01T08:52:21;23.12;;;8.48;;
75628;SDS011;64213;46.452;16.994;2023-02-01T08:55:24;22.48;;;8.05;;
75628;SDS011;64213;46.452;16.994;2023-02-01T08:58:26;22.23;;;9.40;;
75628;SDS011;64213;46.452;16.994;2023-02-01T09:01:29;25.90;;;9.13;;
75628;SDS011;64213;46.452;16.994;2023-02-01T09:04:31;23.52;;;9.23;;
75628;SDS011;64213;46.452;16.994;2023-02-01T09:07:34;23.60;;;8.63;;
75628;SDS011;64213;46.452;16.994;2023-02-01T09:10:36;22.17;;;8.82;;
75628;SDS011;64213;46.452;16.994;2023-02-01T09:13:39;17.77;;;7.00;;
75628;SDS011;64213;46.452;16.994;2023-02-01T09:16:41;20.33;;;8.63;;
75628;SDS011;64213;46.452;16.994;2023-02-01T09:19:44;23.00;;;8.27;;
75628;SDS011;64213;46.452;16.994;2023-02-01T09:22:46;19.15;;;7.20;;
75628;SDS011;64213;46.452;16.994;2023-02-01T09:25:49;20.33;;;6.82;;
75628;SDS011;64213;46.452;16.994;2023-02-01T09:28:53;21.07;;;7.80;;
75628;SDS011;64213;46.452;16.994;2023-02-01T09:31:55;21.12;;;7.80;;
75628;SDS011;64213;46.452;16.994;2023-02-01T09:35:05;19.83;;;7.68;;
75628;SDS011;64213;46.452;16.994;2023-02-01T09:38:07;18.05;;;6.22;;
75628;SDS011;64213;46.452;16.994;2023-02-01T09:48:20;16.75;;;6.03;;
75628;SDS011;64213;46.452;16.994;2023-02-01T09:51:37;15.90;;;5.37;;
75628;SDS011;64213;46.452;16.994;2023-02-01T09:55:04;14.40;;;5.35;;
75628;SDS011;64213;46.452;16.994;2023-02-01T10:01:27;12.67;;;3.77;;
75628;SDS011;64213;46.452;16.994;2023-02-01T10:04:31;19.50;;;6.62;;
75628;SDS011;64213;46.452;16.994;2023-02-01T10:10:44;17.42;;;6.30;;
75628;SDS011;64213;46.452;16.994;2023-02-01T10:14:04;16.98;;;6.40;;
75628;SDS011;64213;46.452;16.994;2023-02-01T10:30:18;25.88;;;9.70;;
75628;SDS011;64213;46.452;16.994;2023-02-01T10:36:28;18.45;;;7.20;;
75628;SDS011;64213;46.452;16.994;2023-02-01T10:39:33;27.90;;;9.15;;
75628;SDS011;64213;46.452;16.994;2023-02-01T10:42:36;28.50;;;11.90;;
75628;SDS011;64213;46.452;16.994;2023-02-01T10:45:38;22.45;;;8.45;;
75628;SDS011;64213;46.452;16.994;2023-02-01T10:48:44;18.93;;;6.50;;
75628;SDS011;64213;46.452;16.994;2023-02-01T10:52:02;18.25;;;5.85;;
75628;SDS011;64213;46.452;16.994;2023-02-01T10:55:51;15.95;;;5.57;;
75628;SDS011;64213;46.452;16.994;2023-02-01T10:58:46;24.33;;;6.97;;
75628;SDS011;64213;46.452;16.994;2023-02-01T11:01:49;19.33;;;6.45;;
75628;SDS011;64213;46.452;16.994;2023-02-01T11:05:07;17.27;;;6.10;;
75628;SDS011;64213;46.452;16.994;2023-02-01T11:08:14;16.98;;;5.75;;
75628;SDS011;64213;46.452;16.994;2023-02-01T11:11:20;17.20;;;5.93;;
75628;SDS011;64213;46.452;16.994;2023-02-01T11:17:33;13.07;;;4.68;;
75628;SDS011;64213;46.452;16.994;2023-02-01T11:20:38;14.13;;;5.43;;
75628;SDS011;64213;46.452;16.994;2023-02-01T11:23:43;17.48;;;5.95;;
75628;SDS011;64213;46.452;16.994;2023-02-01T11:26:47;18.98;;;6.50;;
75628;SDS011;64213;46.452;16.994;2023-02-01T11:29:50;16.33;;;5.93;;
75628;SDS011;64213;46.452;16.994;2023-02-01T11:32:55;13.55;;;4.37;;
75628;SDS011;64213;46.452;16.994;2023-02-01T11:36:08;16.00;;;5.53;;
75628;SDS011;64213;46.452;16.994;2023-02-01T11:39:21;17.27;;;5.95;;
75628;SDS011;64213;46.452;16.994;2023-02-01T11:42:30;18.37;;;6.18;;
75628;SDS011;64213;46.452;16.994;2023-02-01T11:45:32;17.58;;;6.68;;
75628;SDS011;64213;46.452;16.994;2023-02-01T11:48:36;16.83;;;6.03;;
75628;SDS011;64213;46.452;16.994;2023-02-01T11:51:51;13.43;;;4.73;;
75628;SDS011;64213;46.452;16.994;2023-02-01T12:12:05;18.17;;;6.97;;
75628;SDS011;64213;46.452;16.994;2023-02-01T12:24:59;16.53;;;5.00;;
75628;SDS011;64213;46.452;16.994;2023-02-01T12:41:03;19.57;;;6.87;;
75628;SDS011;64213;46.452;16.994;2023-02-01T12:44:26;18.73;;;6.75;;
75628;SDS011;64213;46.452;16.994;2023-02-01T12:47:35;19.00;;;7.32;;
75628;SDS011;64213;46.452;16.994;2023-02-01T12:50:44;17.48;;;6.72;;
75628;SDS011;64213;46.452;16.994;2023-02-01T12:53:55;18.67;;;7.32;;
75628;SDS011;64213;46.452;16.994;2023-02-01T12:57:10;17.87;;;6.73;;
75628;SDS011;64213;46.452;16.994;2023-02-01T13:07:14;17.77;;;6.70;;
75628;SDS011;64213;46.452;16.994;2023-02-01T13:10:36;18.95;;;7.28;;
75628;SDS011;64213;46.452;16.994;2023-02-01T13:17:10;17.73;;;5.78;;
75628;SDS011;64213;46.452;16.994;2023-02-01T13:23:37;19.02;;;7.37;;
75628;SDS011;64213;46.452;16.994;2023-02-01T13:26:41;18.17;;;7.15;;
75628;SDS011;64213;46.452;16.994;2023-02-01T13:29:46;20.10;;;7.50;;
75628;SDS011;64213;46.452;16.994;2023-02-01T13:40:36;18.12;;;7.53;;
75628;SDS011;64213;46.452;16.994;2023-02-01T13:43:48;19.92;;;8.50;;
75628;SDS011;64213;46.452;16.994;2023-02-01T13:46:56;20.57;;;7.07;;
75628;SDS011;64213;46.452;16.994;2023-02-01T13:50:02;21.50;;;7.37;;
75628;SDS011;64213;46.452;16.994;2023-02-01T13:53:18;19.30;;;6.60;;
75628;SDS011;64213;46.452;16.994;2023-02-01T13:56:29;20.08;;;7.45;;
75628;SDS011;64213;46.452;16.994;2023-02-01T14:02:48;17.03;;;5.90;;
75628;SDS011;64213;46.452;16.994;2023-02-01T14:06:05;16.42;;;5.93;;
75628;SDS011;64213;46.452;16.994;2023-02-01T14:09:19;20.08;;;6.32;;
75628;SDS011;64213;46.452;16.994;2023-02-01T14:19:07;18.57;;;5.60;;
75628;SDS011;64213;46.452;16.994;2023-02-01T14:25:16;12.48;;;3.67;;
75628;SDS011;64213;46.452;16.994;2023-02-01T14:28:24;18.83;;;5.03;;
75628;SDS011;64213;46.452;16.994;2023-02-01T14:31:37;12.70;;;4.07;;
75628;SDS011;64213;46.452;16.994;2023-02-01T14:37:52;15.75;;;5.35;;
75628;SDS011;64213;46.452;16.994;2023-02-01T14:44:35;17.73;;;5.95;;
75628;SDS011;64213;46.452;16.994;2023-02-01T14:47:42;16.85;;;6.10;;
75628;SDS011;64213;46.452;16.994;2023-02-01T14:50:46;19.87;;;6.27;;
75628;SDS011;64213;46.452;16.994;2023-02-01T14:53:49;16.48;;;6.65;;
75628;SDS011;64213;46.452;16.994;2023-02-01T14:56:53;15.50;;;5.37;;
75628;SDS011;64213;46.452;16.994;2023-02-01T15:00:00;13.98;;;4.85;;
75628;SDS011;64213;46.452;16.994;2023-02-01T15:06:57;16.20;;;5.80;;
75628;SDS011;64213;46.452;16.994;2023-02-01T15:10:06;15.13;;;6.30;;
75628;SDS011;64213;46.452;16.994;2023-02-01T15:13:17;13.80;;;5.25;;
75628;SDS011;64213;46.452;16.994;2023-02-01T15:16:22;18.80;;;7.87;;
75628;SDS011;64213;46.452;16.994;2023-02-01T15:19:27;14.07;;;4.85;;
75628;SDS011;64213;46.452;16.994;2023-02-01T15:22:32;14.27;;;4.83;;
75628;SDS011;64213;46.452;16.994;2023-02-01T15:25:40;15.80;;;5.05;;
75628;SDS011;64213;46.452;16.994;2023-02-01T15:28:43;12.18;;;4.53;;
75628;SDS011;64213;46.452;16.994;2023-02-01T15:31:46;13.25;;;4.55;;
75628;SDS011;64213;46.452;16.994;2023-02-01T15:34:50;17.33;;;5.70;;
75628;SDS011;64213;46.452;16.994;2023-02-01T15:37:52;14.47;;;5.77;;
75628;SDS011;64213;46.452;16.994;2023-02-01T15:41:15;15.48;;;5.80;;
75628;SDS011;64213;46.452;16.994;2023-02-01T15:44:30;13.43;;;5.32;;
75628;SDS011;64213;46.452;16.994;2023-02-01T15:47:36;13.50;;;5.10;;
75628;SDS011;64213;46.452;16.994;2023-02-01T15:50:38;9.60;;;3.10;;
75628;SDS011;64213;46.452;16.994;2023-02-01T15:53:46;13.30;;;4.33;;
75628;SDS011;64213;46.452;16.994;2023-02-01T15:56:53;15.55;;;5.43;;
75628;SDS011;64213;46.452;16.994;2023-02-01T16:00:04;16.95;;;6.53;;
75628;SDS011;64213;46.452;16.994;2023-02-01T16:06:55;17.73;;;6.97;;
75628;SDS011;64213;46.452;16.994;2023-02-01T16:10:18;23.37;;;7.77;;
75628;SDS011;64213;46.452;16.994;2023-02-01T16:13:25;17.60;;;7.70;;
75628;SDS011;64213;46.452;16.994;2023-02-01T16:16:30;18.30;;;8.07;;
75628;SDS011;64213;46.452;16.994;2023-02-01T16:19:32;17.70;;;8.13;;
75628;SDS011;64213;46.452;16.994;2023-02-01T16:22:34;22.08;;;7.85;;
75628;SDS011;64213;46.452;16.994;2023-02-01T16:25:37;18.30;;;7.50;;
75628;SDS011;64213;46.452;16.994;2023-02-01T16:28:43;17.02;;;8.18;;
75628;SDS011;64213;46.452;16.994;2023-02-01T16:31:47;20.62;;;7.57;;
75628;SDS011;64213;46.452;16.994;2023-02-01T16:34:51;18.45;;;7.87;;
75628;SDS011;64213;46.452;16.994;2023-02-01T16:37:56;16.15;;;6.60;;
75628;SDS011;64213;46.452;16.994;2023-02-01T16:41:00;17.97;;;7.20;;
75628;SDS011;64213;46.452;16.994;2023-02-01T16:44:05;18.10;;;6.93;;
75628;SDS011;64213;46.452;16.994;2023-02-01T16:47:19;19.80;;;8.82;;
75628;SDS011;64213;46.452;16.994;2023-02-01T16:50:29;19.33;;;9.68;;
75628;SDS011;64213;46.452;16.994;2023-02-01T16:53:35;20.58;;;9.88;;
75628;SDS011;64213;46.452;16.994;2023-02-01T16:56:54;22.23;;;9.30;;
75628;SDS011;64213;46.452;16.994;2023-02-01T16:59:57;23.25;;;11.20;;
75628;SDS011;64213;46.452;16.994;2023-02-01T17:03:24;24.80;;;9.85;;
75628;SDS011;64213;46.452;16.994;2023-02-01T17:06:28;22.02;;;9.73;;
75628;SDS011;64213;46.452;16.994;2023-02-01T17:09:35;39.38;;;16.33;;
75628;SDS011;64213;46.452;16.994;2023-02-01T17:12:39;24.33;;;9.70;;
75628;SDS011;64213;46.452;16.994;2023-02-01T17:15:46;28.50;;;10.80;;
75628;SDS011;64213;46.452;16.994;2023-02-01T17:22:01;34.50;;;11.95;;
75628;SDS011;64213;46.452;16.994;2023-02-01T17:25:13;33.22;;;12.45;;
75628;SDS011;64213;46.452;16.994;2023-02-01T17:28:19;25.80;;;9.13;;
75628;SDS011;64213;46.452;16.994;2023-02-01T17:31:22;39.78;;;14.93;;
75628;SDS011;64213;46.452;16.994;2023-02-01T17:34:25;31.08;;;13.48;;
75628;SDS011;64213;46.452;16.994;2023-02-01T17:37:30;41.88;;;18.90;;
75628;SDS011;64213;46.452;16.994;2023-02-01T17:40:36;25.27;;;10.90;;
75628;SDS011;64213;46.452;16.994;2023-02-01T17:43:39;36.00;;;12.63;;
75628;SDS011;64213;46.452;16.994;2023-02-01T17:46:43;33.33;;;14.27;;
75628;SDS011;64213;46.452;16.994;2023-02-01T17:49:46;29.52;;;13.62;;
75628;SDS011;64213;46.452;16.994;2023-02-01T17:52:56;30.02;;;13.25;;
75628;SDS011;64213;46.452;16.994;2023-02-01T17:56:11;23.58;;;9.60;;
75628;SDS011;64213;46.452;16.994;2023-02-01T17:59:20;23.63;;;9.10;;
75628;SDS011;64213;46.452;16.994;2023-02-01T18:02:24;22.13;;;9.27;;
75628;SDS011;64213;46.452;16.994;2023-02-01T18:05:40;29.63;;;11.65;;
75628;SDS011;64213;46.452;16.994;2023-02-01T18:08:46;36.00;;;15.55;;
75628;SDS011;64213;46.452;16.994;2023-02-01T18:11:49;32.47;;;14.48;;
75628;SDS011;64213;46.452;16.994;2023-02-01T18:15:40;26.93;;;10.60;;
75628;SDS011;64213;46.452;16.994;2023-02-01T18:18:39;29.12;;;11.57;;
75628;SDS011;64213;46.452;16.994;2023-02-01T18:21:43;29.35;;;11.95;;
75628;SDS011;64213;46.452;16.994;2023-02-01T18:24:47;21.77;;;7.70;;
75628;SDS011;64213;46.452;16.994;2023-02-01T18:27:53;25.23;;;9.60;;
75628;SDS011;64213;46.452;16.994;2023-02-01T18:31:01;22.77;;;9.83;;
75628;SDS011;64213;46.452;16.994;2023-02-01T18:34:11;21.83;;;8.35;;
75628;SDS011;64213;46.452;16.994;2023-02-01T18:37:18;19.00;;;7.05;;
75628;SDS011;64213;46.452;16.994;2023-02-01T18:40:23;15.88;;;6.05;;
75628;SDS011;64213;46.452;16.994;2023-02-01T18:43:40;20.20;;;8.95;;
75628;SDS011;64213;46.452;16.994;2023-02-01T18:46:45;22.27;;;8.40;;
75628;SDS011;64213;46.452;16.994;2023-02-01T18:49:53;18.75;;;7.57;;
75628;SDS011;64213;46.452;16.994;2023-02-01T18:52:58;21.33;;;8.68;;
75628;SDS011;64213;46.452;16.994;2023-02-01T18:56:02;22.67;;;9.18;;
75628;SDS011;64213;46.452;16.994;2023-02-01T18:59:06;26.40;;;9.88;;
75628;SDS011;64213;46.452;16.994;2023-02-01T19:02:11;24.17;;;10.10;;
75628;SDS011;64213;46.452;16.994;2023-02-01T19:05:15;19.08;;;7.30;;
75628;SDS011;64213;46.452;16.994;2023-02-01T19:08:25;26.80;;;11.18;;
75628;SDS011;64213;46.452;16.994;2023-02-01T19:11:32;32.78;;;12.77;;
75628;SDS011;64213;46.452;16.994;2023-02-01T19:14:37;20.00;;;6.82;;
75628;SDS011;64213;46.452;16.994;2023-02-01T19:17:42;23.67;;;9.23;;
75628;SDS011;64213;46.452;16.994;2023-02-01T19:20:50;38.10;;;16.08;;
75628;SDS011;64213;46.452;16.994;2023-02-01T19:24:03;23.87;;;10.23;;
75628;SDS011;64213;46.452;16.994;2023-02-01T19:27:07;20.10;;;7.85;;
75628;SDS011;64213;46.452;16.994;2023-02-01T19:33:50;19.20;;;8.63;;
75628;SDS011;64213;46.452;16.994;2023-02-01T19:36:54;29.85;;;10.20;;
75628;SDS011;64213;46.452;16.994;2023-02-01T19:39:58;28.80;;;12.93;;
75628;SDS011;64213;46.452;16.994;2023-02-01T19:43:02;37.83;;;16.30;;
75628;SDS011;64213;46.452;16.994;2023-02-01T19:46:06;31.35;;;14.10;;
75628;SDS011;64213;46.452;16.994;2023-02-01T19:49:09;35.97;;;15.97;;
75628;SDS011;64213;46.452;16.994;2023-02-01T19:52:14;32.33;;;14.35;;
75628;SDS011;64213;46.452;16.994;2023-02-01T19:55:18;33.97;;;14.35;;
75628;SDS011;64213;46.452;16.994;2023-02-01T19:58:24;29.90;;;12.05;;
75628;SDS011;64213;46.452;16.994;2023-02-01T20:01:30;31.37;;;13.80;;
75628;SDS011;64213;46.452;16.994;2023-02-01T20:04:36;30.30;;;12.63;;
75628;SDS011;64213;46.452;16.994;2023-02-01T20:07:40;26.62;;;11.32;;
75628;SDS011;64213;46.452;16.994;2023-02-01T20:10:48;22.45;;;9.60;;
75628;SDS011;64213;46.452;16.994;2023-02-01T20:13:52;23.23;;;9.63;;
75628;SDS011;64213;46.452;16.994;2023-02-01T20:16:59;26.48;;;10.60;;
75628;SDS011;64213;46.452;16.994;2023-02-01T20:20:03;27.37;;;10.90;;
75628;SDS011;64213;46.452;16.994;2023-02-01T20:23:07;25.33;;;10.43;;
75628;SDS011;64213;46.452;16.994;2023-02-01T20:26:13;27.48;;;10.60;;
75628;SDS011;64213;46.452;16.994;2023-02-01T20:29:17;27.42;;;11.85;;
75628;SDS011;64213;46.452;16.994;2023-02-01T20:32:22;28.77;;;11.73;;